Arenzville, Illinois
Current Conditions -  °F | °C
As of 8:15 PM on Friday 24 Oct 2014 (Local Time) from KIJX Reporting Station
Clear Clear  
Wind Chill: 65°   Ceiling: Unl
Heat Index: 65°   Visibility: 10mi
Dew Point: 51°   Wind: 8mph
Humidity: 62%   Direction: 180°S
Pressure: 29.95"   Gusts: NA
Location:  39.88°N, 90.37°W
Report Text: KIJX 250115Z AUTO 18007KT 10SM CLR 18/11 A2995 RMK AO2 T01810106
Loading
Personal Weather Stations






























Interactive Weather Map
Tropical Storm Tracking
New forecast layout! Learn more

10-Day Weather Forecast

Advertisements
Track Severe Weather on mobile